Jarl — SFB6983 — position and weather

sailwx.info

Track history (hours):
 
Tides and Currents Weather Stations Pressure Air Temp Water Temp Dewpoint Dewpoint Depression Visibility Wind Speed Wind Dir Waves Ship Positions

Jarl

Last reported at 2017-Jun-22 10:46 UTC. Time now 2017-Jun-24 10:38 UTC.
Position N 59°21' E 018°08'.

Length 13 m.

Type: Port tender. MMSI: 265671980.

Date/timePositionNaut miles runAvg speedWind from/ knotsBaromVisibWave heightAir tempDewpointWater temp
2017-Jun-22 10:46N 59°21' E 018°08'0 1.1
2017-Jun-22 10:30N 59°21' E 018°08'2 2.9
2017-Jun-22 09:59N 59°19' E 018°09'0 1.0
2017-Jun-22 09:30N 59°19' E 018°10'0 0.9
2017-Jun-22 08:59N 59°20' E 018°11'2 3.2
2017-Jun-22 08:27N 59°19' E 018°08'0 0.0
2017-Jun-22 08:00N 59°19' E 018°08'0 0.0
2017-Jun-22 07:24N 59°19' E 018°08'0 0.0
2017-Jun-22 07:00N 59°19' E 018°08'1 2.6
2017-Jun-22 06:30N 59°19' E 018°10'0 0.7
2017-Jun-22 06:00N 59°20' E 018°11'1 2.2
2017-Jun-22 05:28N 59°19' E 018°09'1 2.9
2017-Jun-22 05:00N 59°20' E 018°09'1 0.0
2017-Jun-20 11:28N 59°21' E 018°08'1 2.4
2017-Jun-20 11:00N 59°22' E 018°07'2 3.4
2017-Jun-20 10:21N 59°23' E 018°10'2 3.0
2017-Jun-20 09:41N 59°23' E 018°06'1 6.0
2017-Jun-20 09:29N 59°22' E 018°07'2 3.3
2017-Jun-20 09:00N 59°21' E 018°08'0 0.1
2017-Jun-20 08:29N 59°21' E 018°08'0 0.0
2017-Jun-20 07:59N 59°21' E 018°08'1 1.0
2017-Jun-20 07:28N 59°21' E 018°07'0 0.3
2017-Jun-20 07:00N 59°21' E 018°07'0 0.1
2017-Jun-20 06:31N 59°21' E 018°07'0 0.1
2017-Jun-20 05:54N 59°21' E 018°07'0 0.2
2017-Jun-20 05:30N 59°21' E 018°07'  
2017-Jun-15 18:23N 59°19' E 018°06'1 1.9
2017-Jun-15 17:58N 59°20' E 018°05'0 0.0
2017-Jun-15 17:28N 59°20' E 018°05'0 0.0
2017-Jun-15 16:58N 59°20' E 018°05'0 0.0
2017-Jun-15 16:28N 59°20' E 018°05'0 0.0
2017-Jun-15 15:55N 59°20' E 018°05'0 0.0
2017-Jun-15 15:29N 59°20' E 018°05'0 0.0
2017-Jun-15 15:00N 59°20' E 018°05'0 0.0
2017-Jun-15 14:27N 59°20' E 018°05'0 0.0
2017-Jun-15 13:29N 59°20' E 018°05'0 0.0
2017-Jun-15 12:58N 59°20' E 018°05'0 0.0
2017-Jun-15 12:27N 59°20' E 018°05'0 0.0
2017-Jun-15 12:00N 59°20' E 018°05'0 0.0
2017-Jun-15 11:30N 59°20' E 018°05'0 0.0
2017-Jun-15 10:58N 59°20' E 018°05'0 0.0
2017-Jun-15 10:30N 59°20' E 018°05'0 0.0
2017-Jun-15 10:00N 59°20' E 018°05'0 0.0
2017-Jun-15 09:30N 59°20' E 018°05'0 0.0
2017-Jun-15 08:59N 59°20' E 018°05'0 0.1
2017-Jun-15 08:30N 59°20' E 018°05'0 0.1
2017-Jun-15 07:55N 59°20' E 018°05'0 0.0
2017-Jun-15 07:19N 59°20' E 018°05'0 0.0
2017-Jun-15 07:00N 59°20' E 018°05'0 0.0
2017-Jun-15 06:27N 59°20' E 018°05'0 0.0
2017-Jun-15 06:01N 59°20' E 018°05'1 1.9
2017-Jun-15 05:31N 59°19' E 018°06'2 3.1
2017-Jun-15 05:00N 59°21' E 018°08'0 0.0
2017-Jun-14 20:57N 59°21' E 018°08'1 3.4
2017-Jun-14 20:30N 59°19' E 018°07'1 2.8
2017-Jun-14 20:00N 59°20' E 018°05'1 2.0
2017-Jun-14 19:30N 59°19' E 018°06'2 3.1
2017-Jun-14 18:59N 59°20' E 018°09'1 2.4
2017-Jun-14 18:28N 59°21' E 018°08'0 0.0
2017-Jun-14 17:58N 59°21' E 018°08'1 2.5
2017-Jun-14 17:30N 59°20' E 018°09'2 4.0
2017-Jun-14 16:55N 59°20' E 018°05'0 0.0
2017-Jun-14 16:30N 59°20' E 018°05'0 0.0
2017-Jun-14 15:53N 59°20' E 018°05'0 0.0
2017-Jun-14 15:29N 59°20' E 018°05'1 1.5
2017-Jun-14 15:00N 59°19' E 018°06'2 1.7
2017-Jun-14 14:00N 59°21' E 018°08'0 0.0
2017-Jun-14 13:27N 59°21' E 018°08'0 0.0
2017-Jun-14 13:00N 59°21' E 018°08'0 0.1
2017-Jun-14 12:26N 59°21' E 018°08'1 1.9
2017-Jun-14 12:00N 59°20' E 018°09'1 2.3
2017-Jun-14 11:30N 59°19' E 018°09'1 1.2
2017-Jun-14 11:00N 59°19' E 018°10'2 2.8
2017-Jun-14 10:28N 59°20' E 018°13'2 4.6
2017-Jun-14 10:00N 59°19' E 018°09'0 0.9
2017-Jun-14 09:30N 59°19' E 018°08'0 0.0
2017-Jun-14 09:00N 59°19' E 018°08'0 0.0
2017-Jun-14 08:29N 59°19' E 018°08'0 0.0
2017-Jun-14 07:59N 59°19' E 018°08'1 2.5
2017-Jun-14 07:30N 59°19' E 018°10'1 2.7
2017-Jun-14 07:00N 59°20' E 018°12'3 4.7
2017-Jun-14 06:28N 59°19' E 018°08'1 2.4
2017-Jun-14 06:00N 59°20' E 018°09'1 2.2
2017-Jun-14 05:28N 59°21' E 018°08'0 0.0
2017-Jun-14 05:00N 59°21' E 018°08'0 0.0
2017-Jun-13 10:15N 59°21' E 018°08'0 1.2
2017-Jun-13 10:00N 59°20' E 018°07'0 0.4
2017-Jun-13 09:29N 59°21' E 018°08'0 0.2
2017-Jun-13 09:00N 59°21' E 018°08'0 0.0
2017-Jun-13 08:30N 59°21' E 018°08'0 0.0
2017-Jun-13 08:00N 59°21' E 018°08'0 0.0
2017-Jun-13 07:30N 59°21' E 018°08'0 0.0
2017-Jun-13 07:00N 59°21' E 018°08'0 0.0
2017-Jun-13 06:27N 59°21' E 018°08'0 0.0
2017-Jun-13 05:45N 59°21' E 018°08'0 0.0
2017-Jun-13 05:27N 59°21' E 018°08'0 0.0
2017-Jun-13 05:00N 59°21' E 018°08'0 0.0
2017-Jun-13 04:30N 59°21' E 018°08'0 0.0
2017-Jun-13 03:57N 59°21' E 018°08'0 0.0
2017-Jun-13 03:30N 59°21' E 018°08'0 0.0
2017-Jun-13 03:00N 59°21' E 018°08'0 0.0
2017-Jun-13 02:30N 59°21' E 018°08'0 0.0
2017-Jun-13 02:00N 59°21' E 018°08'0 0.0
2017-Jun-13 01:30N 59°21' E 018°08'0 0.0
2017-Jun-13 01:00N 59°21' E 018°08'0 0.0
2017-Jun-13 00:30N 59°21' E 018°08'0 0.0
2017-Jun-13 00:00N 59°21' E 018°08'0 0.0
2017-Jun-12 23:30N 59°21' E 018°08'0 0.0
2017-Jun-12 23:00N 59°21' E 018°08'0 0.0
2017-Jun-12 22:30N 59°21' E 018°08'0 0.0
2017-Jun-12 22:00N 59°21' E 018°08'0 0.0
2017-Jun-12 21:30N 59°21' E 018°08'0 0.0
2017-Jun-12 21:00N 59°21' E 018°08'0 0.0
2017-Jun-12 20:30N 59°21' E 018°08'0 0.0
2017-Jun-12 20:00N 59°21' E 018°08'0 0.0
2017-Jun-12 19:30N 59°21' E 018°08'0 0.0
2017-Jun-12 19:00N 59°21' E 018°08'0 0.0
2017-Jun-12 18:27N 59°21' E 018°08'0 0.0
2017-Jun-12 17:57N 59°21' E 018°08'0 0.0
2017-Jun-12 17:30N 59°21' E 018°08'0 0.0
2017-Jun-12 17:00N 59°21' E 018°08'0 0.0
2017-Jun-12 16:27N 59°21' E 018°08'0 0.0
2017-Jun-12 15:57N 59°21' E 018°08'0 0.0
2017-Jun-12 15:27N 59°21' E 018°08'0 0.0
2017-Jun-12 14:57N 59°21' E 018°08'0 0.0
2017-Jun-12 14:27N 59°21' E 018°08'0 0.0
2017-Jun-12 13:27N 59°21' E 018°08'0 0.0
2017-Jun-12 12:57N 59°21' E 018°08'0 0.0
2017-Jun-12 12:27N 59°21' E 018°08'0 0.0
2017-Jun-12 11:57N 59°21' E 018°08'0 0.0
2017-Jun-12 11:09N 59°21' E 018°08'0 0.0
2017-Jun-12 10:57N 59°21' E 018°08'  
Track history (hours):
 
Tides and Currents Weather Stations Pressure Air Temp Water Temp Dewpoint Dewpoint Depression Visibility Wind Speed Wind Dir Waves Ship Positions

Jarl

Last reported at 2017-Jun-22 10:46 UTC. Time now 2017-Jun-24 10:38 UTC.
Position N 59°21' E 018°08'.

Length 13 m.

Type: Port tender. MMSI: 265671980.

Date/timePositionNaut miles runAvg speedWind from/ knotsBaromVisibWave heightAir tempDewpointWater temp
2017-Jun-22 10:46N 59°21' E 018°08'0 1.1
2017-Jun-22 10:30N 59°21' E 018°08'2 2.9
2017-Jun-22 09:59N 59°19' E 018°09'0 1.0
2017-Jun-22 09:30N 59°19' E 018°10'0 0.9
2017-Jun-22 08:59N 59°20' E 018°11'2 3.2
2017-Jun-22 08:27N 59°19' E 018°08'0 0.0
2017-Jun-22 08:00N 59°19' E 018°08'0 0.0
2017-Jun-22 07:24N 59°19' E 018°08'0 0.0
2017-Jun-22 07:00N 59°19' E 018°08'1 2.6
2017-Jun-22 06:30N 59°19' E 018°10'0 0.7
2017-Jun-22 06:00N 59°20' E 018°11'1 2.2
2017-Jun-22 05:28N 59°19' E 018°09'1 2.9
2017-Jun-22 05:00N 59°20' E 018°09'1 0.0
2017-Jun-20 11:28N 59°21' E 018°08'1 2.4
2017-Jun-20 11:00N 59°22' E 018°07'2 3.4
2017-Jun-20 10:21N 59°23' E 018°10'2 3.0
2017-Jun-20 09:41N 59°23' E 018°06'1 6.0
2017-Jun-20 09:29N 59°22' E 018°07'2 3.3
2017-Jun-20 09:00N 59°21' E 018°08'0 0.1
2017-Jun-20 08:29N 59°21' E 018°08'0 0.0
2017-Jun-20 07:59N 59°21' E 018°08'1 1.0
2017-Jun-20 07:28N 59°21' E 018°07'0 0.3
2017-Jun-20 07:00N 59°21' E 018°07'0 0.1
2017-Jun-20 06:31N 59°21' E 018°07'0 0.1
2017-Jun-20 05:54N 59°21' E 018°07'0 0.2
2017-Jun-20 05:30N 59°21' E 018°07'  
2017-Jun-15 18:23N 59°19' E 018°06'1 1.9
2017-Jun-15 17:58N 59°20' E 018°05'0 0.0
2017-Jun-15 17:28N 59°20' E 018°05'0 0.0
2017-Jun-15 16:58N 59°20' E 018°05'0 0.0
2017-Jun-15 16:28N 59°20' E 018°05'0 0.0
2017-Jun-15 15:55N 59°20' E 018°05'0 0.0
2017-Jun-15 15:29N 59°20' E 018°05'0 0.0
2017-Jun-15 15:00N 59°20' E 018°05'0 0.0
2017-Jun-15 14:27N 59°20' E 018°05'0 0.0
2017-Jun-15 13:29N 59°20' E 018°05'0 0.0
2017-Jun-15 12:58N 59°20' E 018°05'0 0.0
2017-Jun-15 12:27N 59°20' E 018°05'0 0.0
2017-Jun-15 12:00N 59°20' E 018°05'0 0.0
2017-Jun-15 11:30N 59°20' E 018°05'0 0.0
2017-Jun-15 10:58N 59°20' E 018°05'0 0.0
2017-Jun-15 10:30N 59°20' E 018°05'0 0.0
2017-Jun-15 10:00N 59°20' E 018°05'0 0.0
2017-Jun-15 09:30N 59°20' E 018°05'0 0.0
2017-Jun-15 08:59N 59°20' E 018°05'0 0.1
2017-Jun-15 08:30N 59°20' E 018°05'0 0.1
2017-Jun-15 07:55N 59°20' E 018°05'0 0.0
2017-Jun-15 07:19N 59°20' E 018°05'0 0.0
2017-Jun-15 07:00N 59°20' E 018°05'0 0.0
2017-Jun-15 06:27N 59°20' E 018°05'0 0.0
2017-Jun-15 06:01N 59°20' E 018°05'1 1.9
2017-Jun-15 05:31N 59°19' E 018°06'2 3.1
2017-Jun-15 05:00N 59°21' E 018°08'0 0.0
2017-Jun-14 20:57N 59°21' E 018°08'1 3.4
2017-Jun-14 20:30N 59°19' E 018°07'1 2.8
2017-Jun-14 20:00N 59°20' E 018°05'1 2.0
2017-Jun-14 19:30N 59°19' E 018°06'2 3.1
2017-Jun-14 18:59N 59°20' E 018°09'1 2.4
2017-Jun-14 18:28N 59°21' E 018°08'0 0.0
2017-Jun-14 17:58N 59°21' E 018°08'1 2.5
2017-Jun-14 17:30N 59°20' E 018°09'2 4.0
2017-Jun-14 16:55N 59°20' E 018°05'0 0.0
2017-Jun-14 16:30N 59°20' E 018°05'0 0.0
2017-Jun-14 15:53N 59°20' E 018°05'0 0.0
2017-Jun-14 15:29N 59°20' E 018°05'1 1.5
2017-Jun-14 15:00N 59°19' E 018°06'2 1.7
2017-Jun-14 14:00N 59°21' E 018°08'0 0.0
2017-Jun-14 13:27N 59°21' E 018°08'0 0.0
2017-Jun-14 13:00N 59°21' E 018°08'0 0.1
2017-Jun-14 12:26N 59°21' E 018°08'1 1.9
2017-Jun-14 12:00N 59°20' E 018°09'1 2.3
2017-Jun-14 11:30N 59°19' E 018°09'1 1.2
2017-Jun-14 11:00N 59°19' E 018°10'2 2.8
2017-Jun-14 10:28N 59°20' E 018°13'2 4.6
2017-Jun-14 10:00N 59°19' E 018°09'0 0.9
2017-Jun-14 09:30N 59°19' E 018°08'0 0.0
2017-Jun-14 09:00N 59°19' E 018°08'0 0.0
2017-Jun-14 08:29N 59°19' E 018°08'0 0.0
2017-Jun-14 07:59N 59°19' E 018°08'1 2.5
2017-Jun-14 07:30N 59°19' E 018°10'1 2.7
2017-Jun-14 07:00N 59°20' E 018°12'3 4.7
2017-Jun-14 06:28N 59°19' E 018°08'1 2.4
2017-Jun-14 06:00N 59°20' E 018°09'1 2.2
2017-Jun-14 05:28N 59°21' E 018°08'0 0.0
2017-Jun-14 05:00N 59°21' E 018°08'0 0.0
2017-Jun-13 10:15N 59°21' E 018°08'0 1.2
2017-Jun-13 10:00N 59°20' E 018°07'0 0.4
2017-Jun-13 09:29N 59°21' E 018°08'0 0.2
2017-Jun-13 09:00N 59°21' E 018°08'0 0.0
2017-Jun-13 08:30N 59°21' E 018°08'0 0.0
2017-Jun-13 08:00N 59°21' E 018°08'0 0.0
2017-Jun-13 07:30N 59°21' E 018°08'0 0.0
2017-Jun-13 07:00N 59°21' E 018°08'0 0.0
2017-Jun-13 06:27N 59°21' E 018°08'0 0.0
2017-Jun-13 05:45N 59°21' E 018°08'0 0.0
2017-Jun-13 05:27N 59°21' E 018°08'0 0.0
2017-Jun-13 05:00N 59°21' E 018°08'0 0.0
2017-Jun-13 04:30N 59°21' E 018°08'0 0.0
2017-Jun-13 03:57N 59°21' E 018°08'0 0.0
2017-Jun-13 03:30N 59°21' E 018°08'0 0.0
2017-Jun-13 03:00N 59°21' E 018°08'0 0.0
2017-Jun-13 02:30N 59°21' E 018°08'0 0.0
2017-Jun-13 02:00N 59°21' E 018°08'0 0.0
2017-Jun-13 01:30N 59°21' E 018°08'0 0.0
2017-Jun-13 01:00N 59°21' E 018°08'0 0.0
2017-Jun-13 00:30N 59°21' E 018°08'0 0.0
2017-Jun-13 00:00N 59°21' E 018°08'0 0.0
2017-Jun-12 23:30N 59°21' E 018°08'0 0.0
2017-Jun-12 23:00N 59°21' E 018°08'0 0.0
2017-Jun-12 22:30N 59°21' E 018°08'0 0.0
2017-Jun-12 22:00N 59°21' E 018°08'0 0.0
2017-Jun-12 21:30N 59°21' E 018°08'0 0.0
2017-Jun-12 21:00N 59°21' E 018°08'0 0.0
2017-Jun-12 20:30N 59°21' E 018°08'0 0.0
2017-Jun-12 20:00N 59°21' E 018°08'0 0.0
2017-Jun-12 19:30N 59°21' E 018°08'0 0.0
2017-Jun-12 19:00N 59°21' E 018°08'0 0.0
2017-Jun-12 18:27N 59°21' E 018°08'0 0.0
2017-Jun-12 17:57N 59°21' E 018°08'0 0.0
2017-Jun-12 17:30N 59°21' E 018°08'0 0.0
2017-Jun-12 17:00N 59°21' E 018°08'0 0.0
2017-Jun-12 16:27N 59°21' E 018°08'0 0.0
2017-Jun-12 15:57N 59°21' E 018°08'0 0.0
2017-Jun-12 15:27N 59°21' E 018°08'0 0.0
2017-Jun-12 14:57N 59°21' E 018°08'0 0.0
2017-Jun-12 14:27N 59°21' E 018°08'0 0.0
2017-Jun-12 13:27N 59°21' E 018°08'0 0.0
2017-Jun-12 12:57N 59°21' E 018°08'0 0.0
2017-Jun-12 12:27N 59°21' E 018°08'0 0.0
2017-Jun-12 11:57N 59°21' E 018°08'0 0.0
2017-Jun-12 11:09N 59°21' E 018°08'0 0.0
2017-Jun-12 10:57N 59°21' E 018°08'  

Dump ship's entire track history